Observations for CARDIFF-WALES ARPT, United Kingdom (EGFF)

EGFF 140820Z 27010KT 9999 SCT009 BKN013 BKN027 19/16 Q1016  
EGFF 140750Z 26011KT 9999 SCT007 SCT026 BKN038 18/17 Q1016  
EGFF 140720Z AUTO 28007KT 250V320 9999 -RA BKN006 OVC024 18/16 Q1016
EGFF 140650Z AUTO 28002KT 9999 SCT008 SCT011 OVC033 17/15 Q1016 
EGFF 140620Z AUTO 31003KT 9999 BKN030 OVC037 16/15 Q1016
EGFF 140550Z AUTO 31004KT 9999 SCT012 OVC034 16/14 Q1016
EGFF 140520Z AUTO 31005KT 9999 FEW012 OVC031 16/14 Q1015
EGFF 140450Z AUTO 32005KT 9999 OVC037 15/14 Q1015   
EGFF 140420Z AUTO 33006KT 9999 OVC035 15/14 Q1015   
EGFF 140350Z AUTO 32007KT 9999 OVC035 15/14 Q1015   
EGFF 140320Z AUTO 32006KT 9999 OVC034 15/14 Q1015   
EGFF 140250Z AUTO 32006KT 9999 FEW037 14/14 Q1015   
EGFF 140220Z AUTO 31007KT 9999 BKN036 15/14 Q1015   
EGFF 140150Z AUTO 30006KT 9999 FEW010 SCT034 15/14 Q1015
EGFF 140120Z AUTO 30004KT 9999 FEW011 15/14 Q1014   
EGFF 140050Z AUTO 29003KT 9999 BKN010 BKN035 16/15 Q1014
EGFF 140020Z AUTO 29004KT 9999 OVC032 16/15 Q1014   
EGFF 132350Z AUTO 30006KT 9999 FEW018 SCT024 OVC029 17/15 Q1014 
EGFF 132320Z AUTO 28007KT 9999 FEW013 SCT017 BKN023 17/15 Q1014 
EGFF 132250Z AUTO 28008KT 9999 SCT016 BKN047 17/15 Q1014
EGFF 132220Z AUTO 29009KT 9999 BKN048 17/16 Q1014   
EGFF 132150Z AUTO 29008KT 9999 NCD 17/16 Q1013  
EGFF 132120Z AUTO 29008KT 9999 NCD 17/16 Q1013  
EGFF 132050Z AUTO 29007KT 9999 NCD 16/15 Q1013  
EGFF 132020Z AUTO 29007KT 9999 NCD 16/14 Q1013  
EGFF 131950Z AUTO 26003KT 9999 NCD 17/13 Q1012  
EGFF 131920Z AUTO 31009KT 9999 NCD 18/13 Q1012  
EGFF 131850Z AUTO 31010KT 9999 NCD 19/13 Q1012  
EGFF 131820Z AUTO 31012KT 9999 NCD 20/13 Q1011  
EGFF 131750Z AUTO 30012KT 9999 NCD 20/13 Q1011  
EGFF 131720Z AUTO 31011KT 9999 BKN041 20/13 Q1011   
EGFF 131650Z AUTO 28010KT 9999 FEW029 BKN035 BKN043 20/15 Q1011 
EGFF 131620Z AUTO 29012KT 250V320 9999 SCT028 BKN033 OVC044 20/15 Q1011 
EGFF 131550Z AUTO 30012KT 9999 BKN025 BKN034 22/15 Q1010
EGFF 131520Z AUTO 31013KT 9999 FEW023 21/15 Q1010   
EGFF 131450Z AUTO 31015KT 9999 NCD 20/15 Q1010  
EGFF 131420Z AUTO 32015KT 9999 FEW021 20/15 Q1010   
EGFF 131350Z AUTO 30014KT 9999 BKN020 BKN026 21/16 Q1009
EGFF 131320Z AUTO 30014KT 9999 FEW020 SCT028 20/16 Q1009
EGFF 131250Z AUTO 31012KT 9999 FEW022 SCT031 21/16 Q1009
EGFF 131220Z 29011KT 9999 SCT021 SCT025 20/16 Q1009 
EGFF 131150Z 31012KT 9999 SCT017 SCT029 20/16 Q1009 
EGFF 131120Z 29009KT 9999 -RA SCT016 BKN046 19/16 Q1009 
EGFF 131050Z 28010KT 9999 SCT015 BKN048 19/16 Q1008 
EGFF 131020Z 28010KT 9999 SCT013 SCT026 BKN032 19/16 Q1008  
EGFF 130950Z 29011KT 9999 SCT013 BKN017 19/16 Q1008 
EGFF 130920Z 28010KT 9999 SCT012 BKN021 19/16 Q1008 
EGFF 130850Z 28008KT 250V310 9999 SCT010 BKN015 18/16 Q1008 
EGFF 130820Z AUTO 31007KT 9999 FEW011 BKN015 18/16 Q1008
EGFF 130750Z AUTO 31008KT 9999 SCT010 17/15 Q1007